Time;durP1;ratioP1;P1;durP2;ratioP2;P2;SDS_P1;SDS_P2;PMS_P1;PMS_P2;Temp;Humidity;BMP_temperature;BMP_pressure;BME280_temperature;BME280_humidity;BME280_pressure;Samples;Min_cycle;Max_cycle;Signal;HPM_P1;HPM_P2
2024/01/12 00:01:12;;;;;;;;;;;;;;;25.01;38.86;95044.97;4947333;28;9088;-40
2024/01/12 00:03:37;;;;;;;;;;;;;;;25.01;38.81;95038.75;4979331;28;9216;-40
2024/01/12 00:06:05;;;;;;;;;;;;;;;25.02;38.59;95041.00;4973829;28;7014;-41
2024/01/12 00:08:45;;;;;;;;;;;;;;;24.99;39.09;95046.72;4971994;28;9141;-38
2024/01/12 00:11:11;;;;;;;;;;;;;;;25.00;38.77;95051.72;4988480;28;7231;-38
2024/01/12 00:13:38;;;;;;;;;;;;;;;24.99;38.27;95041.22;4984131;28;7067;-37
2024/01/12 00:16:06;;;;;;;;;;;;;;;25.00;38.48;95042.72;4971833;28;7315;-38
2024/01/12 00:18:34;;;;;;;;;;;;;;;24.99;38.33;95050.22;4972781;28;7302;-38
2024/01/12 00:21:02;;;;;;;;;;;;;;;24.99;38.69;95049.47;4984359;28;7311;-38
2024/01/12 00:23:32;;;;;;;;;;;;;;;24.98;38.61;95054.22;4985228;28;7407;-38
2024/01/12 00:26:09;;;;;;;;;;;;;;;24.98;38.57;95045.22;4973059;28;7084;-37
2024/01/12 00:28:36;;;;;;;;;;;;;;;24.97;38.97;95040.97;4975321;28;7960;-37
2024/01/12 00:31:04;;;;;;;;;;;;;;;24.96;38.60;95050.44;4975681;28;6984;-38
2024/01/12 00:33:32;;;;;;;;;;;;;;;24.97;38.95;95047.19;5011493;28;9003;-37
2024/01/12 00:35:58;;;;;;;;;;;;;;;24.99;38.64;95052.97;5042360;28;7408;-38
2024/01/12 00:38:31;;;;;;;;;;;;;;;24.99;38.65;95052.97;5016459;28;9061;-38
2024/01/12 00:41:19;;;;;;;;;;;;;;;24.95;38.07;95052.44;5015378;28;6988;-38
2024/01/12 00:44:09;;;;;;;;;;;;;;;24.97;39.03;95060.97;5034894;28;9170;-37
2024/01/12 00:46:37;;;;;;;;;;;;;;;24.97;38.87;95055.47;5034198;28;7458;-38
2024/01/12 00:49:05;;;;;;;;;;;;;;;24.97;38.52;95051.97;5022485;28;7059;-38
2024/01/12 00:51:48;;;;;;;;;;;;;;;24.97;38.44;95060.22;5032111;28;7270;-38
2024/01/12 00:54:26;;;;;;;;;;;;;;;24.96;38.68;95055.97;5037355;28;6940;-38
2024/01/12 00:56:56;;;;;;;;;;;;;;;24.94;39.01;95048.19;5021767;28;9137;-38
2024/01/12 00:59:24;;;;;;;;;;;;;;;24.92;38.20;95052.69;5031449;28;7707;-37
2024/01/12 01:01:56;;;;;;;;;;;;;;;24.90;38.95;95046.91;5022006;28;9134;-38
2024/01/12 01:04:25;;;;;;;;;;;;;;;24.92;38.57;95049.94;5021926;28;7383;-38
2024/01/12 01:07:11;;;;;;;;;;;;;;;24.92;38.88;95069.19;5021765;28;7067;-38
2024/01/12 01:09:37;;;;;;;;;;;;;;;24.91;38.74;95062.16;5030592;28;9062;-38
2024/01/12 01:12:06;;;;;;;;;;;;;;;24.92;37.87;95067.19;5022796;28;7997;-38
2024/01/12 01:14:33;;;;;;;;;;;;;;;24.92;38.92;95060.94;5020958;28;7355;-38
2024/01/12 01:16:59;;;;;;;;;;;;;;;24.91;38.74;95056.66;5025445;28;7107;-38
2024/01/12 01:19:31;;;;;;;;;;;;;;;24.91;38.27;95062.16;5014390;28;9547;-58
2024/01/12 01:21:57;;;;;;;;;;;;;;;24.89;38.80;95059.16;5016166;28;9828;-59
2024/01/12 01:24:29;;;;;;;;;;;;;;;24.91;38.86;95062.16;5018969;28;9507;-59
2024/01/12 01:26:56;;;;;;;;;;;;;;;24.92;38.21;95063.69;5041325;28;8767;-58
2024/01/12 01:29:22;;;;;;;;;;;;;;;24.90;38.21;95053.19;5020019;28;7256;-59
2024/01/12 01:31:48;;;;;;;;;;;;;;;24.91;38.16;95062.16;5019393;28;9217;-58
2024/01/12 01:34:15;;;;;;;;;;;;;;;24.88;38.06;95054.91;5030898;28;7531;-58
2024/01/12 01:36:45;;;;;;;;;;;;;;;24.89;38.77;95051.66;5020736;28;6974;-57
2024/01/12 01:39:18;;;;;;;;;;;;;;;24.90;38.06;95061.44;5040870;28;9761;-58
2024/01/12 01:41:43;;;;;;;;;;;;;;;24.90;37.76;95063.44;5036515;28;9080;-57
2024/01/12 01:44:12;;;;;;;;;;;;;;;24.90;38.80;95066.94;5016248;28;9387;-57
2024/01/12 01:46:40;;;;;;;;;;;;;;;24.91;37.83;95068.44;5025775;28;6995;-57
2024/01/12 01:49:06;;;;;;;;;;;;;;;24.94;38.52;95072.22;5037106;28;8814;-57
2024/01/12 01:51:32;;;;;;;;;;;;;;;24.93;37.81;95074.19;5035737;28;7178;-58
2024/01/12 01:53:59;;;;;;;;;;;;;;;24.91;38.41;95081.44;5034344;28;7256;-58
2024/01/12 01:56:25;;;;;;;;;;;;;;;24.90;37.70;95077.19;5021170;28;7224;-58
2024/01/12 01:58:53;;;;;;;;;;;;;;;24.87;37.80;95073.41;5016420;28;7434;-58
2024/01/12 02:01:23;;;;;;;;;;;;;;;24.89;38.54;95076.44;5024745;28;7277;-57
2024/01/12 02:03:49;;;;;;;;;;;;;;;24.91;38.10;95081.44;5041505;28;6851;-57
2024/01/12 02:06:16;;;;;;;;;;;;;;;24.90;38.03;95085.44;5024052;28;7479;-57
2024/01/12 02:08:42;;;;;;;;;;;;;;;24.89;38.02;95087.44;5038059;28;6968;-57
2024/01/12 02:11:08;;;;;;;;;;;;;;;24.89;38.62;95087.44;5025909;28;6840;-57
2024/01/12 02:13:34;;;;;;;;;;;;;;;24.93;38.52;95079.69;5041815;28;9003;-58
2024/01/12 02:16:00;;;;;;;;;;;;;;;24.96;37.99;95077.97;5015353;28;7066;-58
2024/01/12 02:18:42;;;;;;;;;;;;;;;24.99;37.84;95079.75;5021105;28;6980;-58
2024/01/12 02:21:10;;;;;;;;;;;;;;;24.99;38.48;95082.50;5021168;28;7265;-58
2024/01/12 02:23:37;;;;;;;;;;;;;;;24.98;37.47;95078.22;5022639;28;7327;-58
2024/01/12 02:26:10;;;;;;;;;;;;;;;25.00;37.83;95087.50;5035371;28;7305;-58
2024/01/12 02:28:36;;;;;;;;;;;;;;;24.99;37.63;95080.50;5024527;28;7203;-41
2024/01/12 02:31:02;;;;;;;;;;;;;;;24.99;38.31;95080.50;5026026;28;9110;-43
2024/01/12 02:33:28;;;;;;;;;;;;;;;24.99;37.59;95082.50;5040385;28;9451;-41
2024/01/12 02:36:02;;;;;;;;;;;;;;;24.98;37.93;95072.72;5023432;28;7366;-43
2024/01/12 02:38:47;;;;;;;;;;;;;;;24.98;37.40;95080.97;5049187;28;9594;-43
2024/01/12 02:41:20;;;;;;;;;;;;;;;24.98;37.92;95081.75;5019838;28;7647;-41
2024/01/12 02:43:48;;;;;;;;;;;;;;;24.99;37.36;95077.00;5035230;28;10075;-43
2024/01/12 02:46:24;;;;;;;;;;;;;;;24.99;37.65;95079.75;5034781;28;7542;-41
2024/01/12 02:49:03;;;;;;;;;;;;;;;24.96;38.07;95075.22;5049875;28;8557;-42
2024/01/12 02:51:50;;;;;;;;;;;;;;;24.98;37.90;95086.50;5029772;28;9124;-41
2024/01/12 02:54:17;;;;;;;;;;;;;;;24.97;37.41;95077.47;5017497;28;7305;-42
2024/01/12 02:56:54;;;;;;;;;;;;;;;24.98;37.33;95073.50;5043933;28;7272;-42
2024/01/12 02:59:49;;;;;;;;;;;;;;;24.97;37.71;95071.25;5020154;28;9332;-42
2024/01/12 03:02:17;;;;;;;;;;;;;;;24.97;37.95;95076.75;5034778;28;7036;-42
2024/01/12 03:05:03;;;;;;;;;;;;;;;24.96;37.61;95075.97;5040374;28;10041;-42
2024/01/12 03:07:32;;;;;;;;;;;;;;;24.99;38.19;95096.28;5017511;28;8227;-42
2024/01/12 03:10:32;;;;;;;;;;;;;;;24.99;37.93;95088.00;5018144;28;7030;-42
2024/01/12 03:13:27;;;;;;;;;;;;;;;24.98;37.73;95078.22;4973408;28;7196;-43
2024/01/12 03:15:57;;;;;;;;;;;;;;;24.97;37.62;95076.75;4947337;28;7309;-42
2024/01/12 03:18:44;;;;;;;;;;;;;;;24.98;38.12;95078.22;4952826;28;7233;-41
2024/01/12 03:21:20;;;;;;;;;;;;;;;24.96;37.86;95070.47;4952422;28;7541;-42
2024/01/12 03:23:47;;;;;;;;;;;;;;;24.97;37.83;95071.97;4928575;28;8169;-43
2024/01/12 03:26:16;;;;;;;;;;;;;;;24.97;37.83;95074.00;4951970;28;9291;-43
2024/01/12 03:28:42;;;;;;;;;;;;;;;24.96;38.19;95075.22;4944031;28;7276;-41
2024/01/12 03:31:08;;;;;;;;;;;;;;;24.95;37.80;95070.94;4943623;28;7171;-41
2024/01/12 03:33:36;;;;;;;;;;;;;;;24.95;37.75;95066.22;4951019;28;8543;-43
2024/01/12 03:36:06;;;;;;;;;;;;;;;24.93;37.53;95056.94;4934431;28;9536;-42
2024/01/12 03:38:32;;;;;;;;;;;;;;;24.95;37.74;95057.19;4944336;28;9226;-41
2024/01/12 03:40:59;;;;;;;;;;;;;;;24.91;37.53;95051.16;4933417;28;7461;-43
2024/01/12 03:43:25;;;;;;;;;;;;;;;24.95;37.37;95066.22;4947802;28;7280;-42
2024/01/12 03:45:55;;;;;;;;;;;;;;;24.95;37.60;95062.69;4942388;28;6983;-42
2024/01/12 03:48:52;;;;;;;;;;;;;;;24.96;37.73;95064.97;4948449;28;7006;-41
2024/01/12 03:51:27;;;;;;;;;;;;;;;24.96;37.87;95067.72;4931740;28;9837;-41
2024/01/12 03:54:08;;;;;;;;;;;;;;;24.95;37.27;95070.94;4972837;28;9043;-42
2024/01/12 03:56:53;;;;;;;;;;;;;;;24.96;37.19;95075.22;4970285;28;9164;-42
2024/01/12 03:59:28;;;;;;;;;;;;;;;24.96;37.46;95075.22;4954604;28;9157;-43
2024/01/12 04:02:03;;;;;;;;;;;;;;;24.95;37.43;95065.44;4954885;28;9122;-43
2024/01/12 04:05:07;;;;;;;;;;;;;;;24.95;37.33;95068.97;4972005;28;7051;-41
2024/01/12 04:07:32;;;;;;;;;;;;;;;24.92;37.48;95063.69;4971753;28;7471;-43
2024/01/12 04:10:00;;;;;;;;;;;;;;;24.94;37.28;95072.22;4954542;28;7177;-42
2024/01/12 04:12:27;;;;;;;;;;;;;;;24.95;38.03;95068.19;4968562;28;9083;-42
2024/01/12 04:14:56;;;;;;;;;;;;;;;24.95;37.26;95068.19;4965802;28;7049;-42
2024/01/12 04:17:41;;;;;;;;;;;;;;;24.94;37.11;95066.69;4956016;28;7086;-43
2024/01/12 04:20:09;;;;;;;;;;;;;;;24.94;37.47;95067.47;4971989;28;7105;-42
2024/01/12 04:22:50;;;;;;;;;;;;;;;24.94;37.04;95059.22;4968063;28;7033;-41
2024/01/12 04:25:29;;;;;;;;;;;;;;;24.94;37.33;95050.94;4962330;28;8448;-42
2024/01/12 04:27:55;;;;;;;;;;;;;;;24.94;38.06;95047.44;4990200;28;7024;-42
2024/01/12 04:30:21;;;;;;;;;;;;;;;24.90;38.06;95044.16;5032108;28;7422;-41
2024/01/12 04:32:47;;;;;;;;;;;;;;;24.93;37.17;95065.19;5032066;28;6973;-41
2024/01/12 04:35:19;;;;;;;;;;;;;;;24.91;37.28;95051.16;5009660;28;9155;-42
2024/01/12 04:37:47;;;;;;;;;;;;;;;24.91;37.41;95053.91;5023578;28;6974;-42
2024/01/12 04:40:17;;;;;;;;;;;;;;;24.93;37.40;95060.44;5015706;28;7579;-42
2024/01/12 04:42:45;;;;;;;;;;;;;;;24.90;37.58;95055.19;5016518;28;7191;-41
2024/01/12 04:45:12;;;;;;;;;;;;;;;24.93;37.87;95057.69;5033241;28;7167;-42
2024/01/12 04:47:38;;;;;;;;;;;;;;;24.91;37.19;95071.19;5021459;28;9206;-42
2024/01/12 04:50:07;;;;;;;;;;;;;;;24.90;37.38;95061.44;5022780;28;7107;-42
2024/01/12 04:52:35;;;;;;;;;;;;;;;24.92;37.97;95055.44;5019249;28;7509;-43
2024/01/12 04:55:10;;;;;;;;;;;;;;;24.93;37.97;95065.94;5046372;28;7237;-41
2024/01/12 04:58:06;;;;;;;;;;;;;;;24.93;37.50;95070.69;5037483;28;9388;-42
2024/01/12 05:00:40;;;;;;;;;;;;;;;24.93;37.33;95078.94;4938444;28;9097;-42
2024/01/12 05:03:08;;;;;;;;;;;;;;;24.92;37.48;95080.19;4918123;28;7343;-41
2024/01/12 05:05:35;;;;;;;;;;;;;;;24.91;37.56;95079.44;4927203;28;7062;-42
2024/01/12 05:08:04;;;;;;;;;;;;;;;24.92;37.04;95080.19;4949400;28;7207;-41
2024/01/12 05:10:31;;;;;;;;;;;;;;;24.91;37.91;95079.44;4952732;28;7066;-42
2024/01/12 05:12:57;;;;;;;;;;;;;;;24.90;36.95;95077.19;4965523;28;7668;-42
2024/01/12 05:15:25;;;;;;;;;;;;;;;24.88;37.00;95079.69;4960601;28;7339;-43
2024/01/12 05:17:50;;;;;;;;;;;;;;;24.87;37.32;95072.66;4965300;28;7304;-43
2024/01/12 05:20:27;;;;;;;;;;;;;;;24.91;37.66;95067.66;4949282;28;7282;-41
2024/01/12 05:22:53;;;;;;;;;;;;;;;24.90;37.56;95069.69;4941609;28;7243;-42
2024/01/12 05:25:32;;;;;;;;;;;;;;;24.90;37.75;95077.19;4951180;28;9080;-42
2024/01/12 05:28:11;;;;;;;;;;;;;;;24.91;37.58;95073.19;4935487;28;8217;-42
2024/01/12 05:30:37;;;;;;;;;;;;;;;24.91;37.00;95079.44;4953800;28;9042;-42
2024/01/12 05:33:03;;;;;;;;;;;;;;;24.94;37.94;95083.22;4952186;28;6925;-41
2024/01/12 05:35:47;;;;;;;;;;;;;;;24.93;37.47;95079.69;4958140;28;7028;-41
2024/01/12 05:38:32;;;;;;;;;;;;;;;24.95;37.49;95084.72;5028409;28;7235;-41
2024/01/12 05:41:10;;;;;;;;;;;;;;;24.93;37.89;95079.69;5035603;28;9048;-43
2024/01/12 05:43:42;;;;;;;;;;;;;;;24.94;36.90;95074.97;5014862;28;8743;-42
2024/01/12 05:46:15;;;;;;;;;;;;;;;24.95;37.17;95068.19;5017320;28;8800;-42
2024/01/12 05:48:41;;;;;;;;;;;;;;;24.96;37.05;95075.22;5015500;28;7324;-42
2024/01/12 05:51:14;;;;;;;;;;;;;;;24.95;37.43;95073.69;5013994;28;9461;-42
2024/01/12 05:53:44;;;;;;;;;;;;;;;24.91;36.97;95062.94;5014344;28;7367;-42
2024/01/12 05:56:34;;;;;;;;;;;;;;;24.98;37.58;95072.72;5015720;28;7237;-41
2024/01/12 05:59:14;;;;;;;;;;;;;;;24.96;37.16;95070.47;5031353;28;7064;-42
2024/01/12 06:01:48;;;;;;;;;;;;;;;24.95;37.56;95068.19;5033810;28;7068;-38
2024/01/12 06:04:19;;;;;;;;;;;;;;;24.93;36.84;95073.44;5034279;28;8796;-38
2024/01/12 06:06:48;;;;;;;;;;;;;;;24.93;37.02;95087.97;5012412;28;7256;-38
2024/01/12 06:09:15;;;;;;;;;;;;;;;24.95;37.24;95073.69;5017739;28;9159;-36
2024/01/12 06:11:43;;;;;;;;;;;;;;;24.96;38.01;95084.25;5034638;28;7826;-37
2024/01/12 06:14:20;;;;;;;;;;;;;;;24.94;37.03;95075.72;5034317;28;9216;-36
2024/01/12 06:16:48;;;;;;;;;;;;;;;24.96;37.25;95084.25;5032908;28;9064;-37
2024/01/12 06:19:15;;;;;;;;;;;;;;;24.97;37.79;95093.25;5030809;28;7215;-36
2024/01/12 06:21:46;;;;;;;;;;;;;;;24.98;37.07;95095.50;5026759;28;7219;-36
2024/01/12 06:24:21;;;;;;;;;;;;;;;25.01;37.85;95082.78;5034791;28;7127;-37
2024/01/12 06:26:59;;;;;;;;;;;;;;;25.02;37.51;95084.25;5043544;28;8409;-36
2024/01/12 06:29:36;;;;;;;;;;;;;;;24.99;37.39;95093.50;5015212;28;8059;-36
2024/01/12 06:32:03;;;;;;;;;;;;;;;25.00;37.93;95092.25;5016302;28;7304;-37
2024/01/12 06:34:29;;;;;;;;;;;;;;;24.99;37.88;95094.25;5017286;28;7218;-37
2024/01/12 06:37:00;;;;;;;;;;;;;;;25.06;36.38;95090.28;5024965;28;7219;-36
2024/01/12 06:39:26;;;;;;;;;;;;;;;25.05;36.16;95099.81;5035978;28;9473;-36
2024/01/12 06:41:56;;;;;;;;;;;;;;;25.02;36.59;95106.28;5027425;28;8930;-37
2024/01/12 06:44:27;;;;;;;;;;;;;;;25.06;36.27;95109.56;5033117;28;7252;-36
2024/01/12 06:46:55;;;;;;;;;;;;;;;25.08;36.78;95096.06;5009029;28;7083;-37
2024/01/12 06:49:23;;;;;;;;;;;;;;;25.11;37.58;95097.84;5036302;28;7250;-36
2024/01/12 06:51:53;;;;;;;;;;;;;;;25.13;36.25;95115.38;5017871;28;9110;-36
2024/01/12 06:54:32;;;;;;;;;;;;;;;25.10;35.77;95118.38;5034399;28;7127;-36
2024/01/12 06:57:12;;;;;;;;;;;;;;;25.09;36.77;95116.84;5033311;28;7414;-36
2024/01/12 06:59:50;;;;;;;;;;;;;;;25.06;36.48;95118.56;5041745;28;9484;-37
2024/01/12 07:02:16;;;;;;;;;;;;;;;25.04;36.17;95117.56;5014735;28;8264;-36
2024/01/12 07:05:11;;;;;;;;;;;;;;;25.04;36.78;95114.81;5032623;28;8718;-36
2024/01/12 07:07:52;;;;;;;;;;;;;;;25.00;35.83;95114.28;4977220;28;7670;-36
2024/01/12 07:10:51;;;;;;;;;;;;;;;25.00;36.10;95117.03;4991680;28;7985;-37
2024/01/12 07:14:01;;;;;;;;;;;;;;;25.00;36.47;95117.03;4989336;28;7168;-36
2024/01/12 07:16:36;;;;;;;;;;;;;;;24.98;36.56;95114.00;4951436;28;7259;-37
2024/01/12 07:19:04;;;;;;;;;;;;;;;24.98;37.33;95122.25;4966287;28;7008;-37
2024/01/12 07:21:50;;;;;;;;;;;;;;;24.97;36.59;95115.28;4953406;28;7223;-36
2024/01/12 07:24:16;;;;;;;;;;;;;;;24.97;37.16;95116.00;4957992;28;6926;-36
2024/01/12 07:26:57;;;;;;;;;;;;;;;24.96;36.98;95103.50;4940636;28;7188;-37
2024/01/12 07:29:35;;;;;;;;;;;;;;;24.97;36.42;95112.53;4947962;28;7472;-37
2024/01/12 07:32:01;;;;;;;;;;;;;;;24.98;37.33;95119.50;4962056;28;7251;-37
2024/01/12 07:34:27;;;;;;;;;;;;;;;24.99;36.67;95121.03;4954764;28;7345;-36
2024/01/12 07:37:21;;;;;;;;;;;;;;;24.99;37.16;95108.00;4952573;28;9008;-36
2024/01/12 07:40:22;;;;;;;;;;;;;;;24.98;37.13;95119.50;4954402;28;9448;-36
2024/01/12 07:42:57;;;;;;;;;;;;;;;25.00;37.87;95122.53;4872180;29;9287;-36
2024/01/12 07:45:25;;;;;;;;;;;;;;;25.02;37.86;95123.56;4879684;29;7500;-36
2024/01/12 07:47:53;;;;;;;;;;;;;;;25.00;38.16;95126.03;4877497;29;7240;-36
2024/01/12 07:50:39;;;;;;;;;;;;;;;24.98;37.58;95125.03;4877760;29;7117;-36
2024/01/12 07:53:39;;;;;;;;;;;;;;;25.00;37.33;95125.28;4896765;29;7261;-36
2024/01/12 07:56:07;;;;;;;;;;;;;;;25.02;37.85;95128.28;4865440;29;9205;-37
2024/01/12 07:58:35;;;;;;;;;;;;;;;25.05;37.20;95114.34;4872897;29;7079;-36
2024/01/12 08:01:17;;;;;;;;;;;;;;;25.09;37.82;95122.34;4870895;29;9617;-36
2024/01/12 08:03:55;;;;;;;;;;;;;;;25.09;37.61;95120.34;4872041;29;9146;-36
2024/01/12 08:06:35;;;;;;;;;;;;;;;25.13;37.51;95129.16;4875661;29;7273;-36
2024/01/12 08:09:38;;;;;;;;;;;;;;;25.14;36.20;95121.66;4861157;29;8781;-36
2024/01/12 08:12:52;;;;;;;;;;;;;;;25.13;36.00;95122.88;4870874;29;7011;-36
2024/01/12 08:15:50;;;;;;;;;;;;;;;25.07;35.40;95122.84;4853901;29;8026;-36
2024/01/12 08:18:19;;;;;;;;;;;;;;;25.04;35.74;95117.56;4837269;29;7247;-36
2024/01/12 08:20:48;;;;;;;;;;;;;;;25.02;35.02;95123.56;4844813;29;7593;-36
2024/01/12 08:23:48;;;;;;;;;;;;;;;25.02;35.11;95129.06;4860339;29;7212;-36
2024/01/12 08:26:15;;;;;;;;;;;;;;;25.00;35.33;95131.53;4845303;29;7283;-37
2024/01/12 08:28:41;;;;;;;;;;;;;;;25.00;35.74;95139.81;4852345;29;7313;-42
2024/01/12 08:31:06;;;;;;;;;;;;;;;25.00;35.85;95142.56;4867532;29;9071;-41
2024/01/12 08:33:32;;;;;;;;;;;;;;;25.00;36.36;95139.81;4913476;29;6978;-41
2024/01/12 08:36:10;;;;;;;;;;;;;;;24.99;35.70;95141.03;4926166;29;7272;-42
2024/01/12 08:39:02;;;;;;;;;;;;;;;24.99;35.79;95138.28;4901818;29;9574;-41
2024/01/12 08:41:30;;;;;;;;;;;;;;;25.00;35.83;95141.78;4905872;29;6994;-41
2024/01/12 08:44:25;;;;;;;;;;;;;;;25.03;35.77;95144.34;4916578;29;7377;-41
2024/01/12 08:46:54;;;;;;;;;;;;;;;25.07;36.84;95141.34;4896373;29;8469;-41
2024/01/12 08:49:20;;;;;;;;;;;;;;;25.04;36.16;95140.34;4892386;29;7058;-42
2024/01/12 08:51:48;;;;;;;;;;;;;;;25.05;36.09;95135.59;4915410;29;7000;-41
2024/01/12 08:54:15;;;;;;;;;;;;;;;25.04;36.80;95139.56;4940159;28;7156;-41
2024/01/12 08:56:50;;;;;;;;;;;;;;;25.03;36.53;95140.81;4971750;28;7092;-41
2024/01/12 08:59:16;;;;;;;;;;;;;;;25.01;36.83;95137.81;4966395;28;7004;-41
2024/01/12 09:01:55;;;;;;;;;;;;;;;25.08;36.74;95134.59;4972332;28;7057;-41
2024/01/12 09:04:22;;;;;;;;;;;;;;;25.06;36.91;95123.31;4977411;28;9699;-41
2024/01/12 09:07:08;;;;;;;;;;;;;;;25.07;37.44;95127.59;4972592;28;9192;-41
2024/01/12 09:09:44;;;;;;;;;;;;;;;25.08;37.19;95115.31;4972024;28;8766;-43
2024/01/12 09:12:10;;;;;;;;;;;;;;;25.06;37.12;95117.81;4972190;28;9118;-41
2024/01/12 09:14:40;;;;;;;;;;;;;;;25.03;37.17;95129.81;4972242;28;7131;-42
2024/01/12 09:20:49;;;;;;;;;;;;;;;25.07;36.92;95130.34;4971772;28;7064;-41
2024/01/12 09:23:59;;;;;;;;;;;;;;;25.07;36.55;95138.59;4996209;28;7510;-43
2024/01/12 09:26:26;;;;;;;;;;;;;;;25.05;37.25;95130.09;4980575;28;8075;-41
2024/01/12 09:28:53;;;;;;;;;;;;;;;25.04;37.21;95142.31;4966035;28;7187;-41
2024/01/12 09:31:21;;;;;;;;;;;;;;;25.06;36.78;95150.84;4983227;28;6983;-43
2024/01/12 09:33:47;;;;;;;;;;;;;;;25.06;37.05;95151.59;4965576;28;7224;-42
2024/01/12 09:36:17;;;;;;;;;;;;;;;25.06;36.83;95153.59;4990102;28;7157;-44
2024/01/12 09:38:46;;;;;;;;;;;;;;;25.08;37.56;95157.38;4976320;28;9314;-42
2024/01/12 09:41:14;;;;;;;;;;;;;;;25.09;37.00;95147.13;4989375;28;7363;-41
2024/01/12 09:43:45;;;;;;;;;;;;;;;25.09;36.80;95149.88;4972637;28;7461;-40
2024/01/12 09:46:28;;;;;;;;;;;;;;;25.10;37.46;95151.41;4973281;28;7405;-39
2024/01/12 09:48:58;;;;;;;;;;;;;;;25.07;37.29;95153.13;4964507;28;7743;-41
2024/01/12 09:51:40;;;;;;;;;;;;;;;25.08;37.14;95145.59;4973754;28;9053;-39
2024/01/12 09:54:06;;;;;;;;;;;;;;;25.09;36.98;95150.63;4972828;28;7421;-40
2024/01/12 09:56:48;;;;;;;;;;;;;;;25.09;36.58;95153.38;4969670;28;9401;-39
2024/01/12 09:59:16;;;;;;;;;;;;;;;25.09;37.13;95155.38;4972393;28;7654;-39
2024/01/12 10:01:42;;;;;;;;;;;;;;;25.07;36.86;95155.13;4975036;28;7570;-39
2024/01/12 10:04:09;;;;;;;;;;;;;;;25.06;37.21;95161.84;5010857;28;9067;-40
2024/01/12 10:06:36;;;;;;;;;;;;;;;25.06;37.51;95153.59;5020637;28;9068;-42
2024/01/12 10:09:09;;;;;;;;;;;;;;;25.08;36.82;95148.34;5019333;28;7079;-40
2024/01/12 10:11:36;;;;;;;;;;;;;;;25.07;36.74;95153.13;5023409;28;9131;-39
2024/01/12 10:14:09;;;;;;;;;;;;;;;25.07;36.62;95158.63;5036542;28;8875;-40
2024/01/12 10:17:20;;;;;;;;;;;;;;;25.10;36.55;95163.16;5023706;28;9578;-39
2024/01/12 10:19:58;;;;;;;;;;;;;;;25.06;37.68;95161.84;4982876;28;6985;-40
2024/01/12 10:22:56;;;;;;;;;;;;;;;25.09;36.61;95169.16;4977043;28;6993;-40
2024/01/12 10:25:24;;;;;;;;;;;;;;;25.08;36.96;95164.88;4971355;28;7470;-40
2024/01/12 10:27:58;;;;;;;;;;;;;;;25.08;37.36;95159.38;4956081;28;9475;-39
2024/01/12 10:30:27;;;;;;;;;;;;;;;25.05;36.83;95161.13;4948285;28;9450;-39
2024/01/12 10:32:53;;;;;;;;;;;;;;;25.10;36.91;95156.91;4969706;28;8896;-41
2024/01/12 10:35:22;;;;;;;;;;;;;;;25.11;37.21;95161.16;4963421;28;7186;-40
2024/01/12 10:37:51;;;;;;;;;;;;;;;25.12;37.32;95160.66;4955003;28;7187;-40
2024/01/12 10:40:23;;;;;;;;;;;;;;;25.15;37.10;95164.44;4950201;28;9408;-39
2024/01/12 10:43:16;;;;;;;;;;;;;;;25.20;37.29;95161.72;4959088;28;9038;-40
2024/01/12 10:45:57;;;;;;;;;;;;;;;25.17;36.67;95161.94;4950614;28;7968;-41
2024/01/12 10:48:32;;;;;;;;;;;;;;;25.17;36.86;95159.19;4946437;28;6998;-37
2024/01/12 10:51:25;;;;;;;;;;;;;;;25.18;37.37;95155.97;4962431;28;9014;-36
2024/01/12 10:54:50;;;;;;;;;;;;;;;25.19;37.46;95153.94;4972409;28;8930;-37
2024/01/12 10:57:20;;;;;;;;;;;;;;;25.17;37.30;95161.94;4916787;29;7234;-37
2024/01/12 11:00:00;;;;;;;;;;;;;;;25.14;37.01;95146.41;4933604;29;8740;-36
2024/01/12 11:02:55;;;;;;;;;;;;;;;25.17;37.77;95146.19;4947853;28;7273;-36
2024/01/12 11:05:33;;;;;;;;;;;;;;;25.16;37.34;95149.44;4956831;28;7244;-37
2024/01/12 11:08:30;;;;;;;;;;;;;;;25.15;38.09;95148.69;4954714;28;7717;-36
2024/01/12 11:11:17;;;;;;;;;;;;;;;25.11;38.12;95137.13;4949572;28;7378;-36
2024/01/12 11:13:45;;;;;;;;;;;;;;;25.15;37.96;95145.16;4938664;28;7218;-36
2024/01/12 11:16:21;;;;;;;;;;;;;;;25.15;37.77;95128.66;4954581;28;7383;-36
2024/01/12 11:18:57;;;;;;;;;;;;;;;25.19;37.65;95137.44;4940791;28;6985;-36
2024/01/12 11:21:30;;;;;;;;;;;;;;;25.16;38.11;95135.66;4954147;28;7300;-36
2024/01/12 11:23:56;;;;;;;;;;;;;;;25.15;37.59;95134.16;4958775;28;9106;-36
2024/01/12 11:26:23;;;;;;;;;;;;;;;25.17;37.78;95135.16;4949040;28;9258;-36
2024/01/12 11:28:50;;;;;;;;;;;;;;;25.18;37.77;95127.69;4990313;28;7129;-36
2024/01/12 11:31:27;;;;;;;;;;;;;;;25.17;38.51;95134.41;5007679;28;7219;-36
2024/01/12 11:33:58;;;;;;;;;;;;;;;25.17;37.58;95123.41;4994534;28;7269;-36
2024/01/12 11:36:29;;;;;;;;;;;;;;;25.17;37.78;95135.16;5004103;28;7021;-36
2024/01/12 11:39:00;;;;;;;;;;;;;;;25.19;38.48;95129.94;4994698;28;9028;-36
2024/01/12 11:41:34;;;;;;;;;;;;;;;25.18;38.40;95125.69;5010286;28;7176;-36
2024/01/12 11:44:05;;;;;;;;;;;;;;;25.18;37.24;95125.69;5019006;28;9099;-36
2024/01/12 11:46:51;;;;;;;;;;;;;;;25.18;38.66;95111.91;5034806;28;7107;-36
2024/01/12 11:49:18;;;;;;;;;;;;;;;25.19;38.12;95126.41;5031795;28;7244;-37
2024/01/12 11:52:05;;;;;;;;;;;;;;;25.22;38.24;95111.69;5032568;28;7238;-36
2024/01/12 11:54:33;;;;;;;;;;;;;;;25.23;38.52;95108.44;5018637;28;7239;-37
2024/01/12 11:57:24;;;;;;;;;;;;;;;25.25;37.45;95103.19;5034465;28;7239;-37
2024/01/12 11:59:49;;;;;;;;;;;;;;;25.24;37.13;95100.94;5033541;28;8034;-37
2024/01/12 12:02:22;;;;;;;;;;;;;;;25.22;37.62;95095.91;5023592;28;6932;-37
2024/01/12 12:04:54;;;;;;;;;;;;;;;25.28;38.24;95090.44;5020725;28;9053;-37
2024/01/12 12:07:25;;;;;;;;;;;;;;;25.30;38.00;95093.44;5031399;28;6999;-37
2024/01/12 12:09:52;;;;;;;;;;;;;;;25.31;38.16;95092.22;5031746;28;7281;-37
2024/01/12 12:12:20;;;;;;;;;;;;;;;25.33;37.82;95092.47;5033102;28;7232;-38
2024/01/12 12:15:05;;;;;;;;;;;;;;;25.35;37.72;95095.50;5032827;28;7418;-38
2024/01/12 12:17:35;;;;;;;;;;;;;;;25.36;37.02;95080.47;5016064;28;9967;-37
2024/01/12 12:20:10;;;;;;;;;;;;;;;25.37;36.58;95081.97;5037536;28;9876;-37
2024/01/12 12:22:45;;;;;;;;;;;;;;;25.34;36.69;95069.19;5015279;28;7016;-38
2024/01/12 12:25:14;;;;;;;;;;;;;;;25.37;35.95;95070.97;5016401;28;7170;-37
2024/01/12 12:27:47;;;;;;;;;;;;;;;25.37;36.13;95079.22;5026031;28;6992;-38
2024/01/12 12:30:20;;;;;;;;;;;;;;;25.36;35.83;95075.72;5015936;28;9628;-38
2024/01/12 12:32:46;;;;;;;;;;;;;;;25.37;36.43;95081.97;5007411;28;9084;-38
2024/01/12 12:35:14;;;;;;;;;;;;;;;25.35;36.42;95074.22;5042982;28;7038;-37
2024/01/12 12:37:41;;;;;;;;;;;;;;;25.34;35.96;95080.19;5032971;28;8736;-37
2024/01/12 12:40:31;;;;;;;;;;;;;;;25.34;36.49;95078.22;5031730;28;9082;-37
2024/01/12 12:42:58;;;;;;;;;;;;;;;25.32;36.75;95077.19;5020254;28;7956;-37
2024/01/12 12:45:26;;;;;;;;;;;;;;;25.35;36.28;95073.47;5030883;28;7214;-38
2024/01/12 12:47:53;;;;;;;;;;;;;;;25.35;36.47;95082.47;5037091;28;7108;-37
2024/01/12 12:50:23;;;;;;;;;;;;;;;25.35;36.01;95078.97;5015767;28;7890;-37
2024/01/12 12:52:49;;;;;;;;;;;;;;;25.32;36.12;95074.44;5016751;28;9506;-37
2024/01/12 12:55:34;;;;;;;;;;;;;;;25.33;36.36;95076.72;5015305;28;9267;-38
2024/01/12 12:58:20;;;;;;;;;;;;;;;25.34;36.16;95082.94;5032826;28;7220;-37
2024/01/12 13:00:50;;;;;;;;;;;;;;;25.33;37.29;95086.97;5033971;28;7086;-37
2024/01/12 13:03:16;;;;;;;;;;;;;;;25.32;36.66;95079.94;5027757;28;8618;-37
2024/01/12 13:05:44;;;;;;;;;;;;;;;25.32;36.63;95066.16;5014418;28;7251;-37
2024/01/12 13:08:12;;;;;;;;;;;;;;;25.30;36.26;95060.41;5032667;28;7135;-38
2024/01/12 13:10:43;;;;;;;;;;;;;;;25.31;36.71;95072.94;5038842;28;9362;-38
2024/01/12 13:13:42;;;;;;;;;;;;;;;25.32;36.38;95079.94;5021504;28;9460;-37
2024/01/12 13:17:03;;;;;;;;;;;;;;;25.27;36.34;95075.91;5026960;28;7271;-37
2024/01/12 13:19:32;;;;;;;;;;;;;;;25.23;36.61;95069.13;5013285;28;7510;-38
2024/01/12 13:22:32;;;;;;;;;;;;;;;25.22;37.04;95070.38;4995947;28;9102;-38
2024/01/12 13:25:08;;;;;;;;;;;;;;;25.28;37.46;95073.91;4932737;29;7124;-37
2024/01/12 13:27:34;;;;;;;;;;;;;;;25.28;36.76;95077.44;4939623;29;9530;-38
2024/01/12 13:30:33;;;;;;;;;;;;;;;25.31;36.33;95072.94;4934566;29;8886;-38
2024/01/12 13:33:03;;;;;;;;;;;;;;;25.28;36.40;95069.16;4895701;29;7767;-38
2024/01/12 13:35:32;;;;;;;;;;;;;;;25.33;37.40;95062.19;4899245;29;7215;-38
2024/01/12 13:37:59;;;;;;;;;;;;;;;25.33;36.84;95056.69;4882612;29;9190;-37